Weather at Yuma International Airport / Marine Corps Air Station Yuma

Public forecast

Using degrees Fahrenheit for public forecast. Weather courtesy of forecast.io.

Current aviation weather report (METAR) for Yuma International Airport / Marine Corps Air Station Yuma

Retrieved 2021/10/21 21:57 UTC (51 minutes ago):

KNYL 212157Z 00000KT 7SM FEW200 31/04 A3000 RMK AO2 SLP157 T03110044

Aviation forecast (TAF) for Yuma International Airport / Marine Corps Air Station Yuma

Forecast is more than 12 hours old.

Retrieved 2014/04/27 15:15 UTC (7 years ago):

TAF TAF COR KNYL 271500Z 2715/2815 VRB06KT 9999 FEW250 QNH2989INS BECMG 2716/2718 26007KT QNH2978INS BECMG 2806/2808 VRB05KT QNH2981INS AUTOMATED SENSOR METWATCH 2715 TIL 2815 TX22/2723Z TN10/2813Z COR 1545